sensor_id;sensor_type;location;lat;lon;timestamp;pressure;altitude;pressure_sealevel;temperature;humidity
73518;BME280;61766;60.318;25.044;2023-12-07T00:00:17;102853.04;;;-0.22;41.44
73518;BME280;61766;60.318;25.044;2023-12-07T00:02:42;102852.49;;;-0.51;42.40
73518;BME280;61766;60.318;25.044;2023-12-07T00:05:08;102849.38;;;-0.20;42.11
73518;BME280;61766;60.318;25.044;2023-12-07T00:07:33;102851.27;;;-0.68;42.75
73518;BME280;61766;60.318;25.044;2023-12-07T00:09:58;102848.54;;;-0.17;42.43
73518;BME280;61766;60.318;25.044;2023-12-07T00:12:24;102846.32;;;-0.38;42.32
73518;BME280;61766;60.318;25.044;2023-12-07T00:14:49;102850.45;;;-0.37;42.32
73518;BME280;61766;60.318;25.044;2023-12-07T00:17:14;102848.98;;;-0.23;41.89
73518;BME280;61766;60.318;25.044;2023-12-07T00:19:40;102851.84;;;-0.40;42.33
73518;BME280;61766;60.318;25.044;2023-12-07T00:22:06;102849.59;;;-0.38;42.74
73518;BME280;61766;60.318;25.044;2023-12-07T00:24:31;102850.07;;;0.07;42.05
73518;BME280;61766;60.318;25.044;2023-12-07T00:26:57;102851.69;;;-0.11;41.66
73518;BME280;61766;60.318;25.044;2023-12-07T00:29:22;102849.82;;;0.17;41.04
73518;BME280;61766;60.318;25.044;2023-12-07T00:31:47;102854.31;;;-0.27;41.78
73518;BME280;61766;60.318;25.044;2023-12-07T00:34:13;102858.19;;;-0.48;42.17
73518;BME280;61766;60.318;25.044;2023-12-07T00:36:39;102862.17;;;0.04;42.01
73518;BME280;61766;60.318;25.044;2023-12-07T00:39:04;102867.12;;;-0.28;41.94
73518;BME280;61766;60.318;25.044;2023-12-07T00:41:29;102868.43;;;0.21;41.62
73518;BME280;61766;60.318;25.044;2023-12-07T00:43:55;102867.82;;;0.12;41.19
73518;BME280;61766;60.318;25.044;2023-12-07T00:46:20;102865.51;;;-0.62;42.15
73518;BME280;61766;60.318;25.044;2023-12-07T00:48:45;102865.42;;;-0.73;42.53
73518;BME280;61766;60.318;25.044;2023-12-07T00:51:11;102865.35;;;-0.33;41.95
73518;BME280;61766;60.318;25.044;2023-12-07T00:53:37;102865.09;;;0.54;41.34
73518;BME280;61766;60.318;25.044;2023-12-07T00:56:02;102865.21;;;-0.24;41.68
73518;BME280;61766;60.318;25.044;2023-12-07T00:58:27;102866.66;;;0.15;41.20
73518;BME280;61766;60.318;25.044;2023-12-07T01:00:52;102860.55;;;0.34;40.91
73518;BME280;61766;60.318;25.044;2023-12-07T01:03:18;102858.80;;;0.45;40.67
73518;BME280;61766;60.318;25.044;2023-12-07T01:05:43;102857.70;;;0.61;40.41
73518;BME280;61766;60.318;25.044;2023-12-07T01:08:09;102860.02;;;0.04;41.18
73518;BME280;61766;60.318;25.044;2023-12-07T01:10:34;102857.76;;;0.39;40.70
73518;BME280;61766;60.318;25.044;2023-12-07T01:13:00;102859.33;;;0.21;40.94
73518;BME280;61766;60.318;25.044;2023-12-07T01:15:26;102860.03;;;0.27;40.95
73518;BME280;61766;60.318;25.044;2023-12-07T01:17:51;102861.63;;;0.44;40.69
73518;BME280;61766;60.318;25.044;2023-12-07T01:20:17;102860.58;;;0.73;40.31
73518;BME280;61766;60.318;25.044;2023-12-07T01:22:42;102863.55;;;0.73;39.93
73518;BME280;61766;60.318;25.044;2023-12-07T01:25:08;102864.10;;;1.01;39.70
73518;BME280;61766;60.318;25.044;2023-12-07T01:27:33;102866.54;;;0.27;40.17
73518;BME280;61766;60.318;25.044;2023-12-07T01:29:58;102868.21;;;0.58;39.85
73518;BME280;61766;60.318;25.044;2023-12-07T01:32:24;102867.78;;;0.70;40.21
73518;BME280;61766;60.318;25.044;2023-12-07T01:34:49;102872.33;;;0.73;39.80
73518;BME280;61766;60.318;25.044;2023-12-07T01:37:15;102875.07;;;1.10;39.40
73518;BME280;61766;60.318;25.044;2023-12-07T01:39:41;102882.02;;;1.16;39.39
73518;BME280;61766;60.318;25.044;2023-12-07T01:42:05;102886.81;;;1.16;39.51
73518;BME280;61766;60.318;25.044;2023-12-07T01:44:30;102888.52;;;0.71;39.53
73518;BME280;61766;60.318;25.044;2023-12-07T01:46:56;102890.41;;;0.88;39.34
73518;BME280;61766;60.318;25.044;2023-12-07T01:49:21;102889.65;;;0.97;39.27
73518;BME280;61766;60.318;25.044;2023-12-07T01:51:46;102890.11;;;1.07;39.16
73518;BME280;61766;60.318;25.044;2023-12-07T01:54:11;102887.98;;;1.18;39.21
73518;BME280;61766;60.318;25.044;2023-12-07T01:56:37;102886.26;;;0.88;39.00
73518;BME280;61766;60.318;25.044;2023-12-07T01:59:02;102883.94;;;1.12;39.08
73518;BME280;61766;60.318;25.044;2023-12-07T02:01:27;102888.38;;;1.45;38.97
73518;BME280;61766;60.318;25.044;2023-12-07T02:03:52;102891.98;;;1.45;38.79
73518;BME280;61766;60.318;25.044;2023-12-07T02:06:18;102893.99;;;1.05;39.11
73518;BME280;61766;60.318;25.044;2023-12-07T02:08:43;102892.14;;;0.88;39.34
73518;BME280;61766;60.318;25.044;2023-12-07T02:11:09;102893.39;;;1.09;39.17
73518;BME280;61766;60.318;25.044;2023-12-07T02:13:34;102887.07;;;1.38;39.10
73518;BME280;61766;60.318;25.044;2023-12-07T02:15:59;102889.19;;;1.47;38.95
73518;BME280;61766;60.318;25.044;2023-12-07T02:18:28;102892.67;;;1.36;38.63
73518;BME280;61766;60.318;25.044;2023-12-07T02:20:54;102893.77;;;1.45;38.53
73518;BME280;61766;60.318;25.044;2023-12-07T02:23:17;102889.15;;;1.54;38.27
73518;BME280;61766;60.318;25.044;2023-12-07T02:25:44;102888.39;;;1.31;38.16
73518;BME280;61766;60.318;25.044;2023-12-07T02:28:05;102890.61;;;1.38;38.08
73518;BME280;61766;60.318;25.044;2023-12-07T02:30:30;102894.63;;;1.65;37.94
73518;BME280;61766;60.318;25.044;2023-12-07T02:32:55;102893.76;;;1.62;38.09
73518;BME280;61766;60.318;25.044;2023-12-07T02:35:22;102895.34;;;1.33;38.12
73518;BME280;61766;60.318;25.044;2023-12-07T02:37:49;102893.31;;;1.31;38.16
73518;BME280;61766;60.318;25.044;2023-12-07T02:40:14;102895.31;;;1.30;38.10
73518;BME280;61766;60.318;25.044;2023-12-07T02:42:37;102896.27;;;1.63;38.01
73518;BME280;61766;60.318;25.044;2023-12-07T02:45:04;102898.64;;;1.48;37.83
73518;BME280;61766;60.318;25.044;2023-12-07T02:47:28;102899.47;;;1.51;37.80
73518;BME280;61766;60.318;25.044;2023-12-07T02:49:54;102899.07;;;1.58;37.65
73518;BME280;61766;60.318;25.044;2023-12-07T02:52:19;102897.42;;;1.56;37.65
73518;BME280;61766;60.318;25.044;2023-12-07T02:54:45;102900.24;;;1.62;37.63
73518;BME280;61766;60.318;25.044;2023-12-07T02:57:10;102901.36;;;1.66;37.51
73518;BME280;61766;60.318;25.044;2023-12-07T02:59:35;102901.72;;;1.67;37.39
73518;BME280;61766;60.318;25.044;2023-12-07T03:02:00;102901.20;;;1.45;37.39
73518;BME280;61766;60.318;25.044;2023-12-07T03:04:26;102899.68;;;1.68;37.20
73518;BME280;61766;60.318;25.044;2023-12-07T03:06:51;102903.26;;;1.63;37.31
73518;BME280;61766;60.318;25.044;2023-12-07T03:09:17;102907.68;;;1.62;37.31
73518;BME280;61766;60.318;25.044;2023-12-07T03:11:42;102912.15;;;1.64;37.22
73518;BME280;61766;60.318;25.044;2023-12-07T03:14:07;102914.05;;;1.64;37.26
73518;BME280;61766;60.318;25.044;2023-12-07T03:16:33;102912.94;;;1.68;37.20
73518;BME280;61766;60.318;25.044;2023-12-07T03:19:00;102915.19;;;1.73;37.10
73518;BME280;61766;60.318;25.044;2023-12-07T03:21:24;102916.57;;;1.78;36.92
73518;BME280;61766;60.318;25.044;2023-12-07T03:23:49;102918.13;;;1.77;37.03
73518;BME280;61766;60.318;25.044;2023-12-07T03:26:15;102912.89;;;1.84;36.83
73518;BME280;61766;60.318;25.044;2023-12-07T03:28:40;102915.62;;;2.08;36.86
73518;BME280;61766;60.318;25.044;2023-12-07T03:31:05;102916.58;;;1.61;36.85
73518;BME280;61766;60.318;25.044;2023-12-07T03:33:30;102920.35;;;1.85;36.89
73518;BME280;61766;60.318;25.044;2023-12-07T03:35:56;102924.27;;;1.85;36.81
73518;BME280;61766;60.318;25.044;2023-12-07T03:38:21;102926.42;;;1.62;36.86
73518;BME280;61766;60.318;25.044;2023-12-07T03:40:47;102929.18;;;1.78;37.09
73518;BME280;61766;60.318;25.044;2023-12-07T03:43:12;102930.08;;;1.71;37.11
73518;BME280;61766;60.318;25.044;2023-12-07T03:45:38;102934.78;;;1.77;37.03
73518;BME280;61766;60.318;25.044;2023-12-07T03:48:04;102940.76;;;1.73;36.98
73518;BME280;61766;60.318;25.044;2023-12-07T03:50:28;102943.37;;;1.47;37.16
73518;BME280;61766;60.318;25.044;2023-12-07T03:52:54;102945.68;;;1.53;37.05
73518;BME280;61766;60.318;25.044;2023-12-07T03:55:19;102941.87;;;1.76;36.99
73518;BME280;61766;60.318;25.044;2023-12-07T03:57:44;102941.14;;;2.00;36.94
73518;BME280;61766;60.318;25.044;2023-12-07T04:00:12;102941.85;;;1.70;37.02
73518;BME280;61766;60.318;25.044;2023-12-07T04:02:35;102944.21;;;1.69;37.09
73518;BME280;61766;60.318;25.044;2023-12-07T04:05:01;102946.81;;;1.72;37.11
73518;BME280;61766;60.318;25.044;2023-12-07T04:07:27;102951.13;;;1.72;37.02
73518;BME280;61766;60.318;25.044;2023-12-07T04:09:52;102952.06;;;1.70;36.98
73518;BME280;61766;60.318;25.044;2023-12-07T04:12:17;102957.15;;;1.69;37.05
73518;BME280;61766;60.318;25.044;2023-12-07T04:14:43;102951.90;;;1.65;37.06
73518;BME280;61766;60.318;25.044;2023-12-07T04:17:08;102949.93;;;1.54;37.13
73518;BME280;61766;60.318;25.044;2023-12-07T04:19:33;102947.99;;;1.45;37.48
73518;BME280;61766;60.318;25.044;2023-12-07T04:21:58;102949.54;;;1.69;37.38
73518;BME280;61766;60.318;25.044;2023-12-07T04:24:24;102953.05;;;1.47;37.33
73518;BME280;61766;60.318;25.044;2023-12-07T04:26:49;102953.48;;;1.60;37.58
73518;BME280;61766;60.318;25.044;2023-12-07T04:29:14;102955.44;;;1.34;37.67
73518;BME280;61766;60.318;25.044;2023-12-07T04:31:40;102959.17;;;1.42;37.53
73518;BME280;61766;60.318;25.044;2023-12-07T04:34:05;102959.62;;;1.42;37.62
73518;BME280;61766;60.318;25.044;2023-12-07T04:36:30;102958.40;;;1.30;37.78
73518;BME280;61766;60.318;25.044;2023-12-07T04:38:56;102954.40;;;1.40;37.67
73518;BME280;61766;60.318;25.044;2023-12-07T04:41:21;102953.57;;;1.51;37.59
73518;BME280;61766;60.318;25.044;2023-12-07T04:43:46;102954.62;;;1.56;37.43
73518;BME280;61766;60.318;25.044;2023-12-07T04:46:12;102954.84;;;1.48;37.52
73518;BME280;61766;60.318;25.044;2023-12-07T04:48:37;102954.51;;;1.52;37.55
73518;BME280;61766;60.318;25.044;2023-12-07T04:51:03;102953.87;;;1.57;37.41
73518;BME280;61766;60.318;25.044;2023-12-07T04:53:27;102955.09;;;1.57;37.85
73518;BME280;61766;60.318;25.044;2023-12-07T04:55:53;102957.25;;;1.24;38.17
73518;BME280;61766;60.318;25.044;2023-12-07T04:58:19;102956.60;;;1.52;38.16
73518;BME280;61766;60.318;25.044;2023-12-07T05:00:44;102952.63;;;1.41;38.02
73518;BME280;61766;60.318;25.044;2023-12-07T05:03:09;102954.62;;;1.78;37.77
73518;BME280;61766;60.318;25.044;2023-12-07T05:05:35;102955.63;;;1.47;37.72
73518;BME280;61766;60.318;25.044;2023-12-07T05:08:00;102956.56;;;1.51;37.83
73518;BME280;61766;60.318;25.044;2023-12-07T05:10:25;102954.65;;;1.54;37.92
73518;BME280;61766;60.318;25.044;2023-12-07T05:12:51;102955.93;;;1.56;37.96
73518;BME280;61766;60.318;25.044;2023-12-07T05:15:17;102957.95;;;1.59;38.01
73518;BME280;61766;60.318;25.044;2023-12-07T05:17:42;102960.64;;;1.63;38.00
73518;BME280;61766;60.318;25.044;2023-12-07T05:20:08;102960.18;;;1.73;37.85
73518;BME280;61766;60.318;25.044;2023-12-07T05:22:33;102959.79;;;1.81;37.82
73518;BME280;61766;60.318;25.044;2023-12-07T05:24:58;102962.39;;;1.63;37.91
73518;BME280;61766;60.318;25.044;2023-12-07T05:27:24;102968.63;;;1.81;37.71
73518;BME280;61766;60.318;25.044;2023-12-07T05:29:49;102973.97;;;1.77;37.76
73518;BME280;61766;60.318;25.044;2023-12-07T05:32:15;102973.25;;;1.88;37.69
73518;BME280;61766;60.318;25.044;2023-12-07T05:34:41;102972.76;;;1.64;37.71
73518;BME280;61766;60.318;25.044;2023-12-07T05:37:06;102975.41;;;1.98;37.56
73518;BME280;61766;60.318;25.044;2023-12-07T05:39:31;102974.13;;;2.05;37.40
73518;BME280;61766;60.318;25.044;2023-12-07T05:41:56;102975.31;;;2.10;37.25
73518;BME280;61766;60.318;25.044;2023-12-07T05:44:21;102977.10;;;1.61;37.30
73518;BME280;61766;60.318;25.044;2023-12-07T05:46:46;102980.87;;;1.63;37.27
73518;BME280;61766;60.318;25.044;2023-12-07T05:49:12;102985.40;;;1.95;37.18
73518;BME280;61766;60.318;25.044;2023-12-07T05:51:37;102985.44;;;2.23;37.12
73518;BME280;61766;60.318;25.044;2023-12-07T05:54:03;102986.86;;;2.01;37.06
73518;BME280;61766;60.318;25.044;2023-12-07T05:56:28;102986.66;;;2.23;37.00
73518;BME280;61766;60.318;25.044;2023-12-07T05:58:53;102989.30;;;1.76;37.09
73518;BME280;61766;60.318;25.044;2023-12-07T06:01:18;102990.23;;;1.61;37.20
73518;BME280;61766;60.318;25.044;2023-12-07T06:03:44;102994.24;;;2.22;37.12
73518;BME280;61766;60.318;25.044;2023-12-07T06:06:09;102993.98;;;2.03;37.27
73518;BME280;61766;60.318;25.044;2023-12-07T06:08:34;102991.58;;;1.59;37.47
73518;BME280;61766;60.318;25.044;2023-12-07T06:11:01;102995.41;;;1.74;37.38
73518;BME280;61766;60.318;25.044;2023-12-07T06:13:25;102994.01;;;1.86;37.47
73518;BME280;61766;60.318;25.044;2023-12-07T06:15:51;102998.25;;;1.63;37.72
73518;BME280;61766;60.318;25.044;2023-12-07T06:18:16;103004.64;;;1.54;37.94
73518;BME280;61766;60.318;25.044;2023-12-07T06:20:41;103003.22;;;1.62;37.85
73518;BME280;61766;60.318;25.044;2023-12-07T06:23:07;103009.49;;;1.46;38.06
73518;BME280;61766;60.318;25.044;2023-12-07T06:25:33;103010.63;;;1.83;37.65
73518;BME280;61766;60.318;25.044;2023-12-07T06:27:58;103008.41;;;1.96;37.50
73518;BME280;61766;60.318;25.044;2023-12-07T06:30:23;103010.16;;;1.74;37.47
73518;BME280;61766;60.318;25.044;2023-12-07T06:32:48;103012.32;;;1.48;37.45
73518;BME280;61766;60.318;25.044;2023-12-07T06:35:14;103013.95;;;1.53;37.64
73518;BME280;61766;60.318;25.044;2023-12-07T06:37:39;103011.91;;;1.37;37.52
73518;BME280;61766;60.318;25.044;2023-12-07T06:40:06;103014.73;;;1.12;37.65
73518;BME280;61766;60.318;25.044;2023-12-07T06:42:30;103019.37;;;1.69;37.40
73518;BME280;61766;60.318;25.044;2023-12-07T06:44:55;103023.13;;;1.50;37.73
73518;BME280;61766;60.318;25.044;2023-12-07T06:47:20;103023.65;;;1.60;37.67
73518;BME280;61766;60.318;25.044;2023-12-07T06:49:46;103024.48;;;1.57;37.73
73518;BME280;61766;60.318;25.044;2023-12-07T06:52:11;103025.57;;;1.77;37.44
73518;BME280;61766;60.318;25.044;2023-12-07T06:54:37;103029.39;;;1.56;37.41
73518;BME280;61766;60.318;25.044;2023-12-07T06:57:02;103035.71;;;1.16;37.75
73518;BME280;61766;60.318;25.044;2023-12-07T06:59:27;103034.28;;;1.11;38.20
73518;BME280;61766;60.318;25.044;2023-12-07T07:01:52;103030.89;;;1.31;37.88
73518;BME280;61766;60.318;25.044;2023-12-07T07:04:17;103034.60;;;1.21;37.98
73518;BME280;61766;60.318;25.044;2023-12-07T07:06:43;103038.83;;;0.91;38.85
73518;BME280;61766;60.318;25.044;2023-12-07T07:09:08;103041.84;;;0.30;39.97
73518;BME280;61766;60.318;25.044;2023-12-07T07:11:33;103047.15;;;0.37;39.98
73518;BME280;61766;60.318;25.044;2023-12-07T07:13:59;103042.71;;;0.09;40.40
73518;BME280;61766;60.318;25.044;2023-12-07T07:16:25;103050.75;;;-0.42;41.22
73518;BME280;61766;60.318;25.044;2023-12-07T07:18:50;103050.34;;;0.31;40.48
73518;BME280;61766;60.318;25.044;2023-12-07T07:21:15;103048.75;;;0.50;40.27
73518;BME280;61766;60.318;25.044;2023-12-07T07:23:41;103057.21;;;0.17;40.37
73518;BME280;61766;60.318;25.044;2023-12-07T07:26:06;103059.45;;;0.40;40.03
73518;BME280;61766;60.318;25.044;2023-12-07T07:28:32;103060.69;;;0.07;40.46
73518;BME280;61766;60.318;25.044;2023-12-07T07:30:57;103062.22;;;0.36;40.41
73518;BME280;61766;60.318;25.044;2023-12-07T07:33:23;103063.73;;;-0.07;40.79
73518;BME280;61766;60.318;25.044;2023-12-07T07:35:48;103068.84;;;-0.40;41.20
73518;BME280;61766;60.318;25.044;2023-12-07T07:38:13;103068.40;;;-0.08;41.15
73518;BME280;61766;60.318;25.044;2023-12-07T07:40:38;103068.79;;;-0.02;41.32
73518;BME280;61766;60.318;25.044;2023-12-07T07:43:04;103069.93;;;-0.26;41.44
73518;BME280;61766;60.318;25.044;2023-12-07T07:45:30;103070.95;;;0.10;41.29
73518;BME280;61766;60.318;25.044;2023-12-07T07:47:55;103071.77;;;-0.20;41.64
73518;BME280;61766;60.318;25.044;2023-12-07T07:50:20;103070.78;;;-0.70;41.81
73518;BME280;61766;60.318;25.044;2023-12-07T07:52:45;103064.37;;;-0.81;42.03
73518;BME280;61766;60.318;25.044;2023-12-07T07:55:11;103063.42;;;-0.21;41.86
73518;BME280;61766;60.318;25.044;2023-12-07T07:57:36;103063.60;;;-0.29;42.07
73518;BME280;61766;60.318;25.044;2023-12-07T08:00:02;103066.34;;;-0.67;42.15
73518;BME280;61766;60.318;25.044;2023-12-07T08:02:27;103069.70;;;-0.88;42.77
73518;BME280;61766;60.318;25.044;2023-12-07T08:04:53;103071.03;;;-0.94;42.93
73518;BME280;61766;60.318;25.044;2023-12-07T08:07:19;103068.54;;;-0.53;42.47
73518;BME280;61766;60.318;25.044;2023-12-07T08:09:45;103069.42;;;-1.29;43.20
73518;BME280;61766;60.318;25.044;2023-12-07T08:12:11;103070.45;;;-0.37;42.28
73518;BME280;61766;60.318;25.044;2023-12-07T08:14:36;103069.09;;;-0.31;41.98
73518;BME280;61766;60.318;25.044;2023-12-07T08:17:02;103073.89;;;-0.45;41.48
73518;BME280;61766;60.318;25.044;2023-12-07T08:19:27;103078.64;;;-0.01;41.07
73518;BME280;61766;60.318;25.044;2023-12-07T08:21:52;103079.20;;;-0.07;40.83
73518;BME280;61766;60.318;25.044;2023-12-07T08:24:17;103077.38;;;0.35;40.57
73518;BME280;61766;60.318;25.044;2023-12-07T08:26:43;103079.49;;;-0.21;40.90
73518;BME280;61766;60.318;25.044;2023-12-07T08:29:08;103077.26;;;0.08;40.42
73518;BME280;61766;60.318;25.044;2023-12-07T08:31:33;103082.57;;;0.23;40.10
73518;BME280;61766;60.318;25.044;2023-12-07T08:33:58;103087.72;;;0.26;39.81
73518;BME280;61766;60.318;25.044;2023-12-07T08:36:24;103093.03;;;-0.12;40.42
73518;BME280;61766;60.318;25.044;2023-12-07T08:38:51;103090.53;;;0.14;40.11
73518;BME280;61766;60.318;25.044;2023-12-07T08:41:15;103093.84;;;-0.17;40.54
73518;BME280;61766;60.318;25.044;2023-12-07T08:43:40;103092.07;;;-0.04;40.13
73518;BME280;61766;60.318;25.044;2023-12-07T08:46:06;103087.73;;;0.15;39.29
73518;BME280;61766;60.318;25.044;2023-12-07T08:48:31;103092.73;;;-0.32;39.86
73518;BME280;61766;60.318;25.044;2023-12-07T08:50:56;103087.20;;;0.00;39.02
73518;BME280;61766;60.318;25.044;2023-12-07T08:53:21;103088.46;;;-1.09;37.40
73518;BME280;61766;60.318;25.044;2023-12-07T08:55:47;103093.09;;;-1.55;38.94
73518;BME280;61766;60.318;25.044;2023-12-07T08:58:12;103094.40;;;-1.26;38.92
73518;BME280;61766;60.318;25.044;2023-12-07T09:00:38;103104.56;;;-3.00;40.69
73518;BME280;61766;60.318;25.044;2023-12-07T09:03:02;103093.82;;;-2.49;40.96
73518;BME280;61766;60.318;25.044;2023-12-07T09:05:28;103087.92;;;-1.81;40.00
73518;BME280;61766;60.318;25.044;2023-12-07T09:07:53;103087.61;;;-1.68;40.23
73518;BME280;61766;60.318;25.044;2023-12-07T09:10:19;103088.35;;;-1.83;39.55
73518;BME280;61766;60.318;25.044;2023-12-07T09:12:44;103090.87;;;-2.42;40.15
73518;BME280;61766;60.318;25.044;2023-12-07T09:15:10;103089.30;;;-2.35;40.36
73518;BME280;61766;60.318;25.044;2023-12-07T09:17:34;103090.17;;;-1.95;39.97
73518;BME280;61766;60.318;25.044;2023-12-07T09:20:00;103091.21;;;-1.85;40.25
73518;BME280;61766;60.318;25.044;2023-12-07T09:22:26;103090.95;;;-1.69;40.03
73518;BME280;61766;60.318;25.044;2023-12-07T09:24:50;103092.91;;;-1.21;39.20
73518;BME280;61766;60.318;25.044;2023-12-07T09:27:16;103094.51;;;-1.49;39.56
73518;BME280;61766;60.318;25.044;2023-12-07T09:29:41;103094.86;;;-1.76;40.11
73518;BME280;61766;60.318;25.044;2023-12-07T09:32:07;103101.31;;;-2.72;40.67
73518;BME280;61766;60.318;25.044;2023-12-07T09:34:32;103103.22;;;-2.89;41.96
73518;BME280;61766;60.318;25.044;2023-12-07T09:37:05;103101.67;;;-2.68;41.84
73518;BME280;61766;60.318;25.044;2023-12-07T09:39:22;103101.64;;;-3.04;42.16
73518;BME280;61766;60.318;25.044;2023-12-07T09:41:48;103101.70;;;-2.27;41.04
73518;BME280;61766;60.318;25.044;2023-12-07T09:44:13;103103.91;;;-2.60;41.73
73518;BME280;61766;60.318;25.044;2023-12-07T09:46:38;103096.73;;;-1.64;40.60
73518;BME280;61766;60.318;25.044;2023-12-07T09:49:04;103097.74;;;-1.58;39.49
73518;BME280;61766;60.318;25.044;2023-12-07T09:51:30;103096.94;;;-2.15;40.01
73518;BME280;61766;60.318;25.044;2023-12-07T09:53:54;103096.67;;;-1.39;39.30
73518;BME280;61766;60.318;25.044;2023-12-07T09:56:20;103098.93;;;-2.12;40.70
73518;BME280;61766;60.318;25.044;2023-12-07T09:58:45;103097.38;;;-2.06;40.81
73518;BME280;61766;60.318;25.044;2023-12-07T10:01:10;103094.54;;;-1.61;40.49
73518;BME280;61766;60.318;25.044;2023-12-07T10:03:36;103095.13;;;-1.94;40.68
73518;BME280;61766;60.318;25.044;2023-12-07T10:06:01;103087.83;;;-1.74;39.96
73518;BME280;61766;60.318;25.044;2023-12-07T10:08:27;103087.52;;;-2.51;41.05
73518;BME280;61766;60.318;25.044;2023-12-07T10:11:02;103091.78;;;-3.28;41.86
73518;BME280;61766;60.318;25.044;2023-12-07T10:13:17;103095.77;;;-2.98;42.51
73518;BME280;61766;60.318;25.044;2023-12-07T10:15:42;103099.45;;;-2.97;42.13
73518;BME280;61766;60.318;25.044;2023-12-07T10:18:07;103100.90;;;-2.76;42.43
73518;BME280;61766;60.318;25.044;2023-12-07T10:20:33;103093.61;;;-1.81;41.24
73518;BME280;61766;60.318;25.044;2023-12-07T10:23:03;103090.11;;;-2.16;40.81
73518;BME280;61766;60.318;25.044;2023-12-07T10:25:24;103087.84;;;-1.80;41.04
73518;BME280;61766;60.318;25.044;2023-12-07T10:27:49;103087.60;;;-2.30;41.19
73518;BME280;61766;60.318;25.044;2023-12-07T10:30:14;103083.71;;;-2.25;41.59
73518;BME280;61766;60.318;25.044;2023-12-07T10:32:40;103083.47;;;-2.27;41.14
73518;BME280;61766;60.318;25.044;2023-12-07T10:35:07;103087.59;;;-2.71;42.28
73518;BME280;61766;60.318;25.044;2023-12-07T10:37:30;103083.69;;;-1.52;40.66
73518;BME280;61766;60.318;25.044;2023-12-07T10:39:55;103087.44;;;-1.81;40.33
73518;BME280;61766;60.318;25.044;2023-12-07T10:42:24;103088.94;;;-2.30;40.84
73518;BME280;61766;60.318;25.044;2023-12-07T10:44:48;103097.57;;;-3.58;42.71
73518;BME280;61766;60.318;25.044;2023-12-07T10:47:12;103094.18;;;-2.93;42.93
73518;BME280;61766;60.318;25.044;2023-12-07T10:49:40;103094.53;;;-3.95;43.80
73518;BME280;61766;60.318;25.044;2023-12-07T10:52:06;103093.54;;;-3.86;44.35
73518;BME280;61766;60.318;25.044;2023-12-07T10:54:36;103094.66;;;-2.73;42.99
73518;BME280;61766;60.318;25.044;2023-12-07T10:56:54;103093.71;;;-2.66;42.30
73518;BME280;61766;60.318;25.044;2023-12-07T10:59:20;103092.01;;;-2.18;41.39
73518;BME280;61766;60.318;25.044;2023-12-07T11:01:43;103096.20;;;-1.92;41.15
73518;BME280;61766;60.318;25.044;2023-12-07T11:04:11;103094.18;;;-1.73;40.12
73518;BME280;61766;60.318;25.044;2023-12-07T11:06:35;103094.56;;;-1.70;40.28
73518;BME280;61766;60.318;25.044;2023-12-07T11:09:03;103090.96;;;-1.38;39.46
73518;BME280;61766;60.318;25.044;2023-12-07T11:11:31;103089.30;;;-1.39;39.16
73518;BME280;61766;60.318;25.044;2023-12-07T11:13:53;103090.12;;;-1.70;39.57
73518;BME280;61766;60.318;25.044;2023-12-07T11:16:15;103097.09;;;-1.95;40.68
73518;BME280;61766;60.318;25.044;2023-12-07T11:18:41;103092.24;;;-2.43;41.32
73518;BME280;61766;60.318;25.044;2023-12-07T11:21:06;103092.30;;;-2.69;41.47
73518;BME280;61766;60.318;25.044;2023-12-07T11:23:32;103086.39;;;-2.68;41.04
73518;BME280;61766;60.318;25.044;2023-12-07T11:25:57;103087.29;;;-2.02;40.64
73518;BME280;61766;60.318;25.044;2023-12-07T11:28:35;103083.19;;;-1.75;40.54
73518;BME280;61766;60.318;25.044;2023-12-07T11:30:47;103081.54;;;-1.85;40.41
73518;BME280;61766;60.318;25.044;2023-12-07T11:33:15;103085.04;;;-1.83;40.23
73518;BME280;61766;60.318;25.044;2023-12-07T11:38:07;103086.31;;;-2.06;40.28
73518;BME280;61766;60.318;25.044;2023-12-07T11:40:29;103082.06;;;-1.38;40.05
73518;BME280;61766;60.318;25.044;2023-12-07T11:42:54;103082.72;;;-1.01;39.70
73518;BME280;61766;60.318;25.044;2023-12-07T11:47:45;103075.02;;;-1.77;40.08
73518;BME280;61766;60.318;25.044;2023-12-07T11:50:11;103073.73;;;-1.70;40.19
73518;BME280;61766;60.318;25.044;2023-12-07T11:52:36;103072.85;;;-1.99;40.86
73518;BME280;61766;60.318;25.044;2023-12-07T11:55:01;103070.50;;;-1.87;40.79
73518;BME280;61766;60.318;25.044;2023-12-07T11:57:26;103072.54;;;-1.74;40.57
73518;BME280;61766;60.318;25.044;2023-12-07T11:59:52;103070.04;;;-1.66;40.16
73518;BME280;61766;60.318;25.044;2023-12-07T12:02:17;103063.19;;;-0.94;39.09
73518;BME280;61766;60.318;25.044;2023-12-07T12:04:43;103069.24;;;-1.02;38.95
73518;BME280;61766;60.318;25.044;2023-12-07T12:07:08;103066.52;;;-0.83;38.88
73518;BME280;61766;60.318;25.044;2023-12-07T12:09:33;103066.12;;;-0.87;38.59
73518;BME280;61766;60.318;25.044;2023-12-07T12:11:58;103062.39;;;-0.62;38.79
73518;BME280;61766;60.318;25.044;2023-12-07T12:14:24;103063.05;;;-0.49;38.33
73518;BME280;61766;60.318;25.044;2023-12-07T12:16:50;103063.53;;;-0.37;37.92
73518;BME280;61766;60.318;25.044;2023-12-07T12:19:14;103064.41;;;-0.11;37.67
73518;BME280;61766;60.318;25.044;2023-12-07T12:21:40;103063.23;;;-0.84;37.60
73518;BME280;61766;60.318;25.044;2023-12-07T12:24:06;103060.38;;;-0.41;37.76
73518;BME280;61766;60.318;25.044;2023-12-07T12:26:30;103059.06;;;0.06;37.46
73518;BME280;61766;60.318;25.044;2023-12-07T12:28:56;103057.03;;;-0.21;37.40
73518;BME280;61766;60.318;25.044;2023-12-07T12:31:21;103054.18;;;0.52;37.02
73518;BME280;61766;60.318;25.044;2023-12-07T12:33:48;103058.97;;;-1.70;38.72
73518;BME280;61766;60.318;25.044;2023-12-07T12:36:11;103056.32;;;-1.61;39.57
73518;BME280;61766;60.318;25.044;2023-12-07T12:38:37;103050.58;;;-0.82;38.86